Time;durP1;ratioP1;P1;durP2;ratioP2;P2;SDS_P1;SDS_P2;PMS_P1;PMS_P2;Temp;Humidity;BMP_temperature;BMP_pressure;BME280_temperature;BME280_humidity;BME280_pressure;Samples;Min_cycle;Max_cycle;Signal;HPM_P1;HPM_P2
2023/05/18 00:00:20;;;;;;;;;;;;;;;;;;5106605;28;19954;-53
2023/05/18 00:02:47;;;;;;;;;;;;;;;;;;5108198;27;19989;-53
2023/05/18 00:05:13;;;;;;;;;;;;;;;;;;5107631;28;19907;-53
2023/05/18 00:07:39;;;;;;;;;;;;;;;;;;5110147;28;20408;-53
2023/05/18 00:10:06;;;;;;;;;;;;;;;;;;5107318;28;19923;-53
2023/05/18 00:12:32;;;;;;;;;;;;;;;;;;5113421;27;20564;-53
2023/05/18 00:14:57;;;;;;;;;;;;;;;;;;5109041;28;19986;-53
2023/05/18 00:17:23;;;;;;;;;;;;;;;;;;5112498;28;20390;-53
2023/05/18 00:19:50;;;;;;;;;;;;;;;;;;5108125;28;19946;-53
2023/05/18 00:22:19;;;;;;;;;;;;;;;;;;5108308;27;19915;-53
2023/05/18 00:24:45;;;;;;;;;;;;;;;;;;5107871;28;19957;-55
2023/05/18 00:27:11;;;;;;;;;;;;;;;;;;5108946;28;19908;-53
2023/05/18 00:29:37;;;;;;;;;;;;;;;;;;5108733;28;20342;-52
2023/05/18 00:32:03;;;;;;;;;;;;;;;;;;5110409;28;19919;-53
2023/05/18 00:34:29;;;;;;;;;;;;;;;;;;5108562;28;20388;-53
2023/05/18 00:36:55;;;;;;;;;;;;;;;;;;5110065;28;20324;-54
2023/05/18 00:39:21;;;;;;;;;;;;;;;;;;5109953;28;19961;-53
2023/05/18 00:41:47;;;;;;;;;;;;;;;;;;5108310;27;20359;-53
2023/05/18 00:44:13;;;;;;;;;;;;;;;;;;5110938;28;20011;-54
2023/05/18 00:46:40;;;;;;;;;;;;;;;;;;5110375;28;19919;-54
2023/05/18 00:49:06;;;;;;;;;;;;;;;;;;5108864;28;20024;-53
2023/05/18 00:51:32;;;;;;;;;;;;;;;;;;5125863;27;19963;-53
2023/05/18 00:53:58;;;;;;;;;;;;;;;;;;5109045;28;19973;-53
2023/05/18 00:56:25;;;;;;;;;;;;;;;;;;5110945;28;20133;-53
2023/05/18 00:58:50;;;;;;;;;;;;;;;;;;5107024;27;19912;-54
2023/05/18 01:01:18;;;;;;;;;;;;;;;;;;5108241;27;19952;-54
2023/05/18 01:03:44;;;;;;;;;;;;;;;;;;5108611;28;20367;-53
2023/05/18 01:06:11;;;;;;;;;;;;;;;;;;5106117;27;20010;-54
2023/05/18 01:08:37;;;;;;;;;;;;;;;;;;5105824;27;19912;-54
2023/05/18 01:11:03;;;;;;;;;;;;;;;;;;5110167;28;19911;-54
2023/05/18 01:13:29;;;;;;;;;;;;;;;;;;5111703;27;19912;-54
2023/05/18 01:15:55;;;;;;;;;;;;;;;;;;5109875;28;19965;-54
2023/05/18 01:18:22;;;;;;;;;;;;;;;;;;5105224;27;19961;-54
2023/05/18 01:20:48;;;;;;;;;;;;;;;;;;5108097;28;19912;-54
2023/05/18 01:23:14;;;;;;;;;;;;;;;;;;5108563;28;19916;-54
2023/05/18 01:25:40;;;;;;;;;;;;;;;;;;5109112;27;20002;-54
2023/05/18 01:28:06;;;;;;;;;;;;;;;;;;5115918;27;20007;-55
2023/05/18 01:30:32;;;;;;;;;;;;;;;;;;5108124;28;19958;-55
2023/05/18 01:32:58;;;;;;;;;;;;;;;;;;5107912;28;19982;-54
2023/05/18 01:35:24;;;;;;;;;;;;;;;;;;5103330;28;19939;-54
2023/05/18 01:37:50;;;;;;;;;;;;;;;;;;5107956;28;19982;-55
2023/05/18 01:40:15;;;;;;;;;;;;;;;;;;5106100;28;19980;-55
2023/05/18 01:42:41;;;;;;;;;;;;;;;;;;5111000;27;19960;-55
2023/05/18 01:45:07;;;;;;;;;;;;;;;;;;5108236;28;19980;-55
2023/05/18 01:47:33;;;;;;;;;;;;;;;;;;5109774;28;19950;-55
2023/05/18 01:49:59;;;;;;;;;;;;;;;;;;5105373;28;19924;-54
2023/05/18 01:52:25;;;;;;;;;;;;;;;;;;5107837;28;19943;-55
2023/05/18 01:54:51;;;;;;;;;;;;;;;;;;5105105;27;19957;-54
2023/05/18 01:57:17;;;;;;;;;;;;;;;;;;5111425;27;20400;-54
2023/05/18 01:59:43;;;;;;;;;;;;;;;;;;5106599;28;19923;-54
2023/05/18 02:02:09;;;;;;;;;;;;;;;;;;5106402;27;20010;-55
2023/05/18 02:04:35;;;;;;;;;;;;;;;;;;5105327;28;20048;-53
2023/05/18 02:07:01;;;;;;;;;;;;;;;;;;5104213;27;20365;-53
2023/05/18 02:09:27;;;;;;;;;;;;;;;;;;5107663;27;19999;-53
2023/05/18 02:11:53;;;;;;;;;;;;;;;;;;5107679;28;19958;-54
2023/05/18 02:14:19;;;;;;;;;;;;;;;;;;5102791;27;20257;-54
2023/05/18 02:16:45;;;;;;;;;;;;;;;;;;5091762;27;19986;-54
2023/05/18 02:19:12;;;;;;;;;;;;;;;;;;5105853;27;19908;-54
2023/05/18 02:21:38;;;;;;;;;;;;;;;;;;5106382;27;20030;-54
2023/05/18 02:24:04;;;;;;;;;;;;;;;;;;5107527;28;19908;-54
2023/05/18 02:26:30;;;;;;;;;;;;;;;;;;5108838;28;19911;-54
2023/05/18 02:28:56;;;;;;;;;;;;;;;;;;5107190;27;19953;-54
2023/05/18 02:31:22;;;;;;;;;;;;;;;;;;5109433;28;19951;-54
2023/05/18 02:33:48;;;;;;;;;;;;;;;;;;5083043;28;20220;-53
2023/05/18 02:36:17;;;;;;;;;;;;;;;;;;5103286;28;21072;-53
2023/05/18 02:38:43;;;;;;;;;;;;;;;;;;5105532;28;19922;-54
2023/05/18 02:41:09;;;;;;;;;;;;;;;;;;5088607;28;19979;-54
2023/05/18 02:43:35;;;;;;;;;;;;;;;;;;5085165;28;20363;-53
2023/05/18 02:46:01;;;;;;;;;;;;;;;;;;5089593;28;20027;-54
2023/05/18 02:48:27;;;;;;;;;;;;;;;;;;5088284;28;19918;-54
2023/05/18 02:50:53;;;;;;;;;;;;;;;;;;5088790;28;20388;-53
2023/05/18 02:53:19;;;;;;;;;;;;;;;;;;5088095;28;19943;-53
2023/05/18 02:55:45;;;;;;;;;;;;;;;;;;5085419;28;19961;-54
2023/05/18 02:58:12;;;;;;;;;;;;;;;;;;5087967;28;20410;-54
2023/05/18 03:00:38;;;;;;;;;;;;;;;;;;5093514;28;19935;-54
2023/05/18 03:03:04;;;;;;;;;;;;;;;;;;5086180;28;20375;-54
2023/05/18 03:05:30;;;;;;;;;;;;;;;;;;5085046;28;20422;-54
2023/05/18 03:07:56;;;;;;;;;;;;;;;;;;5088372;28;20355;-54
2023/05/18 03:10:22;;;;;;;;;;;;;;;;;;5086548;28;19994;-54
2023/05/18 03:12:48;;;;;;;;;;;;;;;;;;5088590;28;19912;-54
2023/05/18 03:15:15;;;;;;;;;;;;;;;;;;5086049;28;19951;-54
2023/05/18 03:17:41;;;;;;;;;;;;;;;;;;5088653;28;20528;-54
2023/05/18 03:20:07;;;;;;;;;;;;;;;;;;5081599;28;20427;-54
2023/05/18 03:22:33;;;;;;;;;;;;;;;;;;5063132;28;19918;-54
2023/05/18 03:25:01;;;;;;;;;;;;;;;;;;5084775;28;19930;-54
2023/05/18 03:27:27;;;;;;;;;;;;;;;;;;5084730;28;19912;-54
2023/05/18 03:29:53;;;;;;;;;;;;;;;;;;5086772;28;19912;-54
2023/05/18 03:32:19;;;;;;;;;;;;;;;;;;5084779;28;20375;-53
2023/05/18 03:34:46;;;;;;;;;;;;;;;;;;5081440;28;19947;-54
2023/05/18 03:37:12;;;;;;;;;;;;;;;;;;5085872;28;19916;-53
2023/05/18 03:39:38;;;;;;;;;;;;;;;;;;5090451;28;20419;-53
2023/05/18 03:42:04;;;;;;;;;;;;;;;;;;5106588;28;20373;-53
2023/05/18 03:44:30;;;;;;;;;;;;;;;;;;5108308;27;19946;-53
2023/05/18 03:46:56;;;;;;;;;;;;;;;;;;5104304;28;19958;-53
2023/05/18 03:49:22;;;;;;;;;;;;;;;;;;5103553;28;20421;-53
2023/05/18 03:51:48;;;;;;;;;;;;;;;;;;5105575;28;19957;-54
2023/05/18 03:54:14;;;;;;;;;;;;;;;;;;5105122;28;19947;-54
2023/05/18 03:56:40;;;;;;;;;;;;;;;;;;5103938;28;19907;-54
2023/05/18 03:59:06;;;;;;;;;;;;;;;;;;5116771;28;19907;-53
2023/05/18 04:01:32;;;;;;;;;;;;;;;;;;5106549;28;19916;-54
2023/05/18 04:03:58;;;;;;;;;;;;;;;;;;5089064;28;19939;-54
2023/05/18 04:06:25;;;;;;;;;;;;;;;;;;5105671;28;19914;-54
2023/05/18 04:08:51;;;;;;;;;;;;;;;;;;5107763;28;20363;-54
2023/05/18 04:11:16;;;;;;;;;;;;;;;;;;5104492;28;19942;-52
2023/05/18 04:13:43;;;;;;;;;;;;;;;;;;5110860;28;19973;-54
2023/05/18 04:16:12;;;;;;;;;;;;;;;;;;5106924;28;20309;-54
2023/05/18 04:18:38;;;;;;;;;;;;;;;;;;5106906;28;19923;-53
2023/05/18 04:21:05;;;;;;;;;;;;;;;;;;5106810;28;19935;-54
2023/05/18 04:23:32;;;;;;;;;;;;;;;;;;5106283;28;19922;-53
2023/05/18 04:25:58;;;;;;;;;;;;;;;;;;5102522;28;19911;-54
2023/05/18 04:28:24;;;;;;;;;;;;;;;;;;5107252;28;20390;-53
2023/05/18 04:30:50;;;;;;;;;;;;;;;;;;5108696;28;19939;-53
2023/05/18 04:33:16;;;;;;;;;;;;;;;;;;5103038;28;20021;-53
2023/05/18 04:35:42;;;;;;;;;;;;;;;;;;5096338;28;19991;-53
2023/05/18 04:38:09;;;;;;;;;;;;;;;;;;5104574;28;19984;-54
2023/05/18 04:40:36;;;;;;;;;;;;;;;;;;5103190;28;19947;-53
2023/05/18 04:43:02;;;;;;;;;;;;;;;;;;5105615;28;20389;-53
2023/05/18 04:45:28;;;;;;;;;;;;;;;;;;5109402;28;19949;-53
2023/05/18 04:47:54;;;;;;;;;;;;;;;;;;5106436;28;20010;-53
2023/05/18 04:50:22;;;;;;;;;;;;;;;;;;5103653;28;20367;-53
2023/05/18 04:52:48;;;;;;;;;;;;;;;;;;5109843;28;20513;-53
2023/05/18 04:55:14;;;;;;;;;;;;;;;;;;5108571;28;19995;-53
2023/05/18 04:57:41;;;;;;;;;;;;;;;;;;5107457;28;19915;-53
2023/05/18 05:00:08;;;;;;;;;;;;;;;;;;5099105;28;19916;-54
2023/05/18 05:02:34;;;;;;;;;;;;;;;;;;5105863;27;19918;-54
2023/05/18 05:05:00;;;;;;;;;;;;;;;;;;5106921;28;20340;-54
2023/05/18 05:07:26;;;;;;;;;;;;;;;;;;5110424;28;20311;-56
2023/05/18 05:09:52;;;;;;;;;;;;;;;;;;5104116;28;19981;-53
2023/05/18 05:12:18;;;;;;;;;;;;;;;;;;5109021;28;20047;-53
2023/05/18 05:14:44;;;;;;;;;;;;;;;;;;5112629;27;20386;-53
2023/05/18 05:17:11;;;;;;;;;;;;;;;;;;5106751;28;19907;-53
2023/05/18 05:19:37;;;;;;;;;;;;;;;;;;5106791;28;19915;-53
2023/05/18 05:22:03;;;;;;;;;;;;;;;;;;5110076;28;20100;-53
2023/05/18 05:24:29;;;;;;;;;;;;;;;;;;5107535;28;19986;-53
2023/05/18 05:26:55;;;;;;;;;;;;;;;;;;5109347;28;19908;-53
2023/05/18 05:29:21;;;;;;;;;;;;;;;;;;5108963;27;19947;-54
2023/05/18 05:31:47;;;;;;;;;;;;;;;;;;5111035;28;19950;-54
2023/05/18 05:34:13;;;;;;;;;;;;;;;;;;5106784;28;19918;-53
2023/05/18 05:36:39;;;;;;;;;;;;;;;;;;5107825;27;19926;-54
2023/05/18 05:39:05;;;;;;;;;;;;;;;;;;5107226;28;19954;-53
2023/05/18 05:41:31;;;;;;;;;;;;;;;;;;5108993;28;20839;-53
2023/05/18 05:43:57;;;;;;;;;;;;;;;;;;5092729;28;19958;-54
2023/05/18 05:46:23;;;;;;;;;;;;;;;;;;5108261;28;19951;-53
2023/05/18 05:48:49;;;;;;;;;;;;;;;;;;5105847;28;19995;-53
2023/05/18 05:51:15;;;;;;;;;;;;;;;;;;5110360;28;19939;-54
2023/05/18 05:53:42;;;;;;;;;;;;;;;;;;5110109;28;20660;-54
2023/05/18 05:56:08;;;;;;;;;;;;;;;;;;5107145;28;19951;-54
2023/05/18 05:58:34;;;;;;;;;;;;;;;;;;5113066;27;19943;-54
2023/05/18 06:01:00;;;;;;;;;;;;;;;;;;5105913;28;19911;-54
2023/05/18 06:03:28;;;;;;;;;;;;;;;;;;5109838;27;19981;-54
2023/05/18 06:05:55;;;;;;;;;;;;;;;;;;5107788;27;20374;-53
2023/05/18 06:08:23;;;;;;;;;;;;;;;;;;5107264;27;20367;-54
2023/05/18 06:10:49;;;;;;;;;;;;;;;;;;5107682;28;19951;-53
2023/05/18 06:13:15;;;;;;;;;;;;;;;;;;5102716;27;19958;-53
2023/05/18 06:15:41;;;;;;;;;;;;;;;;;;5109160;28;19908;-53
2023/05/18 06:18:07;;;;;;;;;;;;;;;;;;5107171;27;19947;-54
2023/05/18 06:20:33;;;;;;;;;;;;;;;;;;5106777;27;19923;-54
2023/05/18 06:22:59;;;;;;;;;;;;;;;;;;5108109;28;19958;-54
2023/05/18 06:25:26;;;;;;;;;;;;;;;;;;5108293;27;19911;-53
2023/05/18 06:27:52;;;;;;;;;;;;;;;;;;5105750;27;19911;-53
2023/05/18 06:30:18;;;;;;;;;;;;;;;;;;5108187;27;19952;-54
2023/05/18 06:32:44;;;;;;;;;;;;;;;;;;5107042;27;20327;-53
2023/05/18 06:35:10;;;;;;;;;;;;;;;;;;5103311;27;20003;-53
2023/05/18 06:37:37;;;;;;;;;;;;;;;;;;5107988;27;19998;-54
2023/05/18 06:40:03;;;;;;;;;;;;;;;;;;5108193;27;20018;-54
2023/05/18 06:42:31;;;;;;;;;;;;;;;;;;5105559;27;19953;-54
2023/05/18 06:44:57;;;;;;;;;;;;;;;;;;5111923;27;19947;-54
2023/05/18 06:47:23;;;;;;;;;;;;;;;;;;5111087;27;19965;-54
2023/05/18 06:49:49;;;;;;;;;;;;;;;;;;5103767;27;19980;-54
2023/05/18 06:52:15;;;;;;;;;;;;;;;;;;5103154;28;19911;-55
2023/05/18 06:54:42;;;;;;;;;;;;;;;;;;5105643;28;19912;-55
2023/05/18 06:57:08;;;;;;;;;;;;;;;;;;5104792;27;20011;-66
2023/05/18 06:59:34;;;;;;;;;;;;;;;;;;5107764;27;20351;-55
2023/05/18 07:02:00;;;;;;;;;;;;;;;;;;5101185;27;19907;-55
2023/05/18 07:04:26;;;;;;;;;;;;;;;;;;5104641;27;20323;-55
2023/05/18 07:06:54;;;;;;;;;;;;;;;;;;5104551;28;20375;-55
2023/05/18 07:09:21;;;;;;;;;;;;;;;;;;5109644;27;19919;-55
2023/05/18 07:11:47;;;;;;;;;;;;;;;;;;5106956;28;19912;-55
2023/05/18 07:14:13;;;;;;;;;;;;;;;;;;5108891;27;20268;-55
2023/05/18 07:16:39;;;;;;;;;;;;;;;;;;5103867;27;19982;-55
2023/05/18 07:19:05;;;;;;;;;;;;;;;;;;5107655;27;19947;-55
2023/05/18 07:21:31;;;;;;;;;;;;;;;;;;5108266;27;19912;-55
2023/05/18 07:23:57;;;;;;;;;;;;;;;;;;5106178;28;19912;-55
2023/05/18 07:26:23;;;;;;;;;;;;;;;;;;5103520;28;20324;-55
2023/05/18 07:28:50;;;;;;;;;;;;;;;;;;5106565;28;19908;-55
2023/05/18 07:31:19;;;;;;;;;;;;;;;;;;5104217;27;19912;-55
2023/05/18 07:33:46;;;;;;;;;;;;;;;;;;5097867;27;20374;-56
2023/05/18 07:36:12;;;;;;;;;;;;;;;;;;5103612;27;19920;-55
2023/05/18 07:38:38;;;;;;;;;;;;;;;;;;5106208;27;19915;-56
2023/05/18 07:41:04;;;;;;;;;;;;;;;;;;5106751;28;19947;-55
2023/05/18 07:43:30;;;;;;;;;;;;;;;;;;5101941;28;19922;-55
2023/05/18 07:45:56;;;;;;;;;;;;;;;;;;5108470;28;19994;-57
2023/05/18 07:48:22;;;;;;;;;;;;;;;;;;5103915;28;19988;-56
2023/05/18 07:50:48;;;;;;;;;;;;;;;;;;5107482;28;20030;-56
2023/05/18 07:53:15;;;;;;;;;;;;;;;;;;5102179;28;19958;-56
2023/05/18 07:55:41;;;;;;;;;;;;;;;;;;5112699;28;20376;-56
2023/05/18 07:58:07;;;;;;;;;;;;;;;;;;5108584;28;19911;-55
2023/05/18 08:00:33;;;;;;;;;;;;;;;;;;5107292;28;19912;-56
2023/05/18 08:02:59;;;;;;;;;;;;;;;;;;5089003;28;19955;-56
2023/05/18 08:05:25;;;;;;;;;;;;;;;;;;5091912;28;19930;-56
2023/05/18 08:07:51;;;;;;;;;;;;;;;;;;5099992;28;19916;-55
2023/05/18 08:10:17;;;;;;;;;;;;;;;;;;5106100;28;20299;-55
2023/05/18 08:12:43;;;;;;;;;;;;;;;;;;5107615;28;19961;-56
2023/05/18 08:15:09;;;;;;;;;;;;;;;;;;5102604;28;20399;-60
2023/05/18 08:17:35;;;;;;;;;;;;;;;;;;5101655;28;20561;-56
2023/05/18 08:20:03;;;;;;;;;;;;;;;;;;5098467;28;20431;-56
2023/05/18 08:22:29;;;;;;;;;;;;;;;;;;5108696;27;20351;-56
2023/05/18 08:24:56;;;;;;;;;;;;;;;;;;5105915;27;20396;-56
2023/05/18 08:27:22;;;;;;;;;;;;;;;;;;5102027;27;19918;-56
2023/05/18 08:29:48;;;;;;;;;;;;;;;;;;5104047;28;19951;-56
2023/05/18 08:32:14;;;;;;;;;;;;;;;;;;5103418;27;19958;-56
2023/05/18 08:34:40;;;;;;;;;;;;;;;;;;5097536;27;19947;-55
2023/05/18 08:37:06;;;;;;;;;;;;;;;;;;5100502;28;19912;-56
2023/05/18 08:39:32;;;;;;;;;;;;;;;;;;5095816;27;19959;-57
2023/05/18 08:41:58;;;;;;;;;;;;;;;;;;5100077;28;19952;-56
2023/05/18 08:44:25;;;;;;;;;;;;;;;;;;5102530;27;19955;-57
2023/05/18 08:46:51;;;;;;;;;;;;;;;;;;5100380;27;19998;-56
2023/05/18 08:49:17;;;;;;;;;;;;;;;;;;5104546;28;19912;-57
2023/05/18 08:51:43;;;;;;;;;;;;;;;;;;5109893;28;19922;-57
2023/05/18 08:54:09;;;;;;;;;;;;;;;;;;5102620;28;19916;-57
2023/05/18 08:56:35;;;;;;;;;;;;;;;;;;5106182;28;20283;-56
2023/05/18 08:59:01;;;;;;;;;;;;;;;;;;5104285;28;19942;-57
2023/05/18 09:01:27;;;;;;;;;;;;;;;;;;5109021;27;20359;-56
2023/05/18 09:03:54;;;;;;;;;;;;;;;;;;5100008;27;20370;-57
2023/05/18 09:06:20;;;;;;;;;;;;;;;;;;5090011;28;19916;-57
2023/05/18 09:08:46;;;;;;;;;;;;;;;;;;5107599;28;19954;-56
2023/05/18 09:11:12;;;;;;;;;;;;;;;;;;5090890;28;19955;-56
2023/05/18 09:13:38;;;;;;;;;;;;;;;;;;5106801;27;19912;-56
2023/05/18 09:16:04;;;;;;;;;;;;;;;;;;5108173;27;20314;-56
2023/05/18 09:18:30;;;;;;;;;;;;;;;;;;5101258;27;19955;-57
2023/05/18 09:20:56;;;;;;;;;;;;;;;;;;5098632;27;19908;-57
2023/05/18 09:23:22;;;;;;;;;;;;;;;;;;5098206;28;19946;-56
2023/05/18 09:25:51;;;;;;;;;;;;;;;;;;5096078;28;19951;-56
2023/05/18 09:28:17;;;;;;;;;;;;;;;;;;5101946;28;20291;-58
2023/05/18 09:30:43;;;;;;;;;;;;;;;;;;5110357;27;19946;-59
2023/05/18 09:33:10;;;;;;;;;;;;;;;;;;5105897;27;19908;-61
2023/05/18 09:35:36;;;;;;;;;;;;;;;;;;5106071;28;19918;-58
2023/05/18 09:38:02;;;;;;;;;;;;;;;;;;5105669;27;20373;-56
2023/05/18 09:40:28;;;;;;;;;;;;;;;;;;5103162;28;20010;-58
2023/05/18 09:42:54;;;;;;;;;;;;;;;;;;5110494;27;19915;-56
2023/05/18 09:45:22;;;;;;;;;;;;;;;;;;5096151;28;19912;-56
2023/05/18 09:47:49;;;;;;;;;;;;;;;;;;5100578;27;19940;-58
2023/05/18 09:50:14;;;;;;;;;;;;;;;;;;5105437;28;19919;-59
2023/05/18 09:52:41;;;;;;;;;;;;;;;;;;5110687;28;20399;-59
2023/05/18 09:55:07;;;;;;;;;;;;;;;;;;5104976;28;19918;-60
2023/05/18 09:57:33;;;;;;;;;;;;;;;;;;5104189;27;19959;-61
2023/05/18 09:59:59;;;;;;;;;;;;;;;;;;5105179;28;19912;-61
2023/05/18 10:02:25;;;;;;;;;;;;;;;;;;5103641;28;19923;-61
2023/05/18 10:04:51;;;;;;;;;;;;;;;;;;5098555;28;19919;-59
2023/05/18 10:07:17;;;;;;;;;;;;;;;;;;5107417;28;19960;-59
2023/05/18 10:09:43;;;;;;;;;;;;;;;;;;5105050;28;19989;-59
2023/05/18 10:12:08;;;;;;;;;;;;;;;;;;5109407;28;19946;-60
2023/05/18 10:14:35;;;;;;;;;;;;;;;;;;5098367;28;19935;-60
2023/05/18 10:17:01;;;;;;;;;;;;;;;;;;5107623;27;19961;-62
2023/05/18 10:19:27;;;;;;;;;;;;;;;;;;5103003;28;19939;-58
2023/05/18 10:21:53;;;;;;;;;;;;;;;;;;5108008;27;19950;-58
2023/05/18 10:24:19;;;;;;;;;;;;;;;;;;5103085;28;19916;-58
2023/05/18 10:26:45;;;;;;;;;;;;;;;;;;5102902;28;19958;-59
2023/05/18 10:29:11;;;;;;;;;;;;;;;;;;5099098;28;21085;-59
2023/05/18 10:31:37;;;;;;;;;;;;;;;;;;5073703;28;20268;-59
2023/05/18 10:34:03;;;;;;;;;;;;;;;;;;5103568;27;20010;-59
2023/05/18 10:36:29;;;;;;;;;;;;;;;;;;5097854;28;19946;-59
2023/05/18 10:38:55;;;;;;;;;;;;;;;;;;5113606;27;20394;-58
2023/05/18 10:41:21;;;;;;;;;;;;;;;;;;5104129;28;19920;-59
2023/05/18 10:43:47;;;;;;;;;;;;;;;;;;5102389;28;20036;-60
2023/05/18 10:46:14;;;;;;;;;;;;;;;;;;5102941;28;19943;-59
2023/05/18 10:48:40;;;;;;;;;;;;;;;;;;5081992;28;19912;-59
2023/05/18 10:51:06;;;;;;;;;;;;;;;;;;5109161;28;19908;-59
2023/05/18 10:53:32;;;;;;;;;;;;;;;;;;5108105;28;19972;-58
2023/05/18 10:55:58;;;;;;;;;;;;;;;;;;5105941;28;20327;-58
2023/05/18 10:58:24;;;;;;;;;;;;;;;;;;5103375;28;19955;-59
2023/05/18 11:00:50;;;;;;;;;;;;;;;;;;5107050;28;20018;-57
2023/05/18 11:03:16;;;;;;;;;;;;;;;;;;5081507;28;20423;-58
2023/05/18 11:05:42;;;;;;;;;;;;;;;;;;5102067;28;19951;-58
2023/05/18 11:08:08;;;;;;;;;;;;;;;;;;5096535;27;20402;-60
2023/05/18 11:10:34;;;;;;;;;;;;;;;;;;5100681;28;19989;-59
2023/05/18 11:13:01;;;;;;;;;;;;;;;;;;5101679;28;19911;-59
2023/05/18 11:15:27;;;;;;;;;;;;;;;;;;5097896;27;20297;-60
2023/05/18 11:17:53;;;;;;;;;;;;;;;;;;5107404;28;19911;-59
2023/05/18 11:20:19;;;;;;;;;;;;;;;;;;5104588;27;19908;-59
2023/05/18 11:22:45;;;;;;;;;;;;;;;;;;5102450;28;20046;-59
2023/05/18 11:25:11;;;;;;;;;;;;;;;;;;5105148;28;20306;-59
2023/05/18 11:27:37;;;;;;;;;;;;;;;;;;5100681;28;19950;-61
2023/05/18 11:30:03;;;;;;;;;;;;;;;;;;5105334;28;19950;-58
2023/05/18 11:32:31;;;;;;;;;;;;;;;;;;5108365;28;19983;-59
2023/05/18 11:34:57;;;;;;;;;;;;;;;;;;5101408;28;19992;-61
2023/05/18 11:37:23;;;;;;;;;;;;;;;;;;5105846;28;19918;-61
2023/05/18 11:39:49;;;;;;;;;;;;;;;;;;5103715;28;19981;-58
2023/05/18 11:42:16;;;;;;;;;;;;;;;;;;5100328;28;19916;-61
2023/05/18 11:44:42;;;;;;;;;;;;;;;;;;5099985;27;19916;-61
2023/05/18 11:47:08;;;;;;;;;;;;;;;;;;5091080;28;19941;-60
2023/05/18 11:49:35;;;;;;;;;;;;;;;;;;5093784;28;20010;-60
2023/05/18 11:52:01;;;;;;;;;;;;;;;;;;5096666;27;19965;-59
2023/05/18 11:54:27;;;;;;;;;;;;;;;;;;5093421;28;19981;-60
2023/05/18 11:56:53;;;;;;;;;;;;;;;;;;5097103;28;19916;-59
2023/05/18 11:59:19;;;;;;;;;;;;;;;;;;5092915;28;19946;-60
2023/05/18 12:01:45;;;;;;;;;;;;;;;;;;5098323;28;19923;-62
2023/05/18 12:04:11;;;;;;;;;;;;;;;;;;5102531;28;19925;-59
2023/05/18 12:06:38;;;;;;;;;;;;;;;;;;5104552;28;19908;-61
2023/05/18 12:09:04;;;;;;;;;;;;;;;;;;5102711;28;20397;-60
2023/05/18 12:11:30;;;;;;;;;;;;;;;;;;5083863;28;19916;-60
2023/05/18 12:13:56;;;;;;;;;;;;;;;;;;5087149;28;19912;-60
2023/05/18 12:16:23;;;;;;;;;;;;;;;;;;5074349;28;20022;-60
2023/05/18 12:18:50;;;;;;;;;;;;;;;;;;5104019;28;19918;-60
2023/05/18 12:21:16;;;;;;;;;;;;;;;;;;5105139;28;20064;-61
2023/05/18 12:23:42;;;;;;;;;;;;;;;;;;5102711;28;19916;-60
2023/05/18 12:26:08;;;;;;;;;;;;;;;;;;5107253;28;19946;-61
2023/05/18 12:28:35;;;;;;;;;;;;;;;;;;5083821;28;19912;-64
2023/05/18 12:31:06;;;;;;;;;;;;;;;;;;5087664;28;19980;-60
2023/05/18 12:33:32;;;;;;;;;;;;;;;;;;5109924;28;19907;-60
2023/05/18 12:35:58;;;;;;;;;;;;;;;;;;5106096;28;19953;-59
2023/05/18 12:38:26;;;;;;;;;;;;;;;;;;5085731;28;19915;-58
2023/05/18 12:40:54;;;;;;;;;;;;;;;;;;5111148;28;19927;-57
2023/05/18 12:43:21;;;;;;;;;;;;;;;;;;5108760;28;19942;-58
2023/05/18 12:45:47;;;;;;;;;;;;;;;;;;5105645;28;19994;-58
2023/05/18 12:48:13;;;;;;;;;;;;;;;;;;5105567;28;19918;-58
2023/05/18 12:50:39;;;;;;;;;;;;;;;;;;5106032;28;19915;-59
2023/05/18 12:53:05;;;;;;;;;;;;;;;;;;5105257;28;20290;-58
2023/05/18 12:55:31;;;;;;;;;;;;;;;;;;5083261;28;20006;-59
2023/05/18 12:57:57;;;;;;;;;;;;;;;;;;5100871;28;19993;-58
2023/05/18 13:00:23;;;;;;;;;;;;;;;;;;5089153;28;19923;-57
2023/05/18 13:02:50;;;;;;;;;;;;;;;;;;5108686;28;19962;-58
2023/05/18 13:05:16;;;;;;;;;;;;;;;;;;5106784;28;19923;-57
2023/05/18 13:07:42;;;;;;;;;;;;;;;;;;5109307;27;19934;-57
2023/05/18 13:10:08;;;;;;;;;;;;;;;;;;5110078;27;20383;-57
2023/05/18 13:12:34;;;;;;;;;;;;;;;;;;5117840;27;20409;-59
2023/05/18 13:15:00;;;;;;;;;;;;;;;;;;5113962;27;20275;-57
2023/05/18 13:17:26;;;;;;;;;;;;;;;;;;5111912;27;20363;-60
2023/05/18 13:19:52;;;;;;;;;;;;;;;;;;5107999;27;19908;-61
2023/05/18 13:22:18;;;;;;;;;;;;;;;;;;5114069;27;19914;-59
2023/05/18 13:24:45;;;;;;;;;;;;;;;;;;5115250;27;20289;-61
2023/05/18 13:27:11;;;;;;;;;;;;;;;;;;5110462;27;20274;-61
2023/05/18 13:29:37;;;;;;;;;;;;;;;;;;5111845;27;20382;-59
2023/05/18 13:32:04;;;;;;;;;;;;;;;;;;5109726;28;19954;-57
2023/05/18 13:34:36;;;;;;;;;;;;;;;;;;5090753;28;20336;-58
2023/05/18 13:37:03;;;;;;;;;;;;;;;;;;5110308;27;19912;-57
2023/05/18 13:39:30;;;;;;;;;;;;;;;;;;5112845;27;19924;-60
2023/05/18 13:41:58;;;;;;;;;;;;;;;;;;5109270;27;19908;-57
2023/05/18 13:44:27;;;;;;;;;;;;;;;;;;5109440;27;19934;-59
2023/05/18 13:46:53;;;;;;;;;;;;;;;;;;5107058;28;19953;-59
2023/05/18 13:49:19;;;;;;;;;;;;;;;;;;5110895;27;20336;-58
2023/05/18 13:51:46;;;;;;;;;;;;;;;;;;5109934;27;19912;-57
2023/05/18 13:54:12;;;;;;;;;;;;;;;;;;5108021;27;19918;-58
2023/05/18 13:56:38;;;;;;;;;;;;;;;;;;5108574;27;20373;-57
2023/05/18 13:59:04;;;;;;;;;;;;;;;;;;5114133;27;19916;-57
2023/05/18 14:01:31;;;;;;;;;;;;;;;;;;5108989;27;19947;-59
2023/05/18 14:03:57;;;;;;;;;;;;;;;;;;5110562;27;19915;-59
2023/05/18 14:06:23;;;;;;;;;;;;;;;;;;5110035;27;19916;-60
2023/05/18 14:08:49;;;;;;;;;;;;;;;;;;5118058;27;19908;-60
2023/05/18 14:11:15;;;;;;;;;;;;;;;;;;5110742;27;20480;-60
2023/05/18 14:13:41;;;;;;;;;;;;;;;;;;5107992;28;20363;-64
2023/05/18 14:16:07;;;;;;;;;;;;;;;;;;5109038;28;19960;-60
2023/05/18 14:18:33;;;;;;;;;;;;;;;;;;5108351;28;19961;-61
2023/05/18 14:21:01;;;;;;;;;;;;;;;;;;5113955;27;19943;-62
2023/05/18 14:23:27;;;;;;;;;;;;;;;;;;5107355;28;19916;-62
2023/05/18 14:25:53;;;;;;;;;;;;;;;;;;5110798;27;19996;-62
2023/05/18 14:28:18;;;;;;;;;;;;;;;;;;5109264;28;20364;-63
2023/05/18 14:30:44;;;;;;;;;;;;;;;;;;5110272;28;19912;-64
2023/05/18 14:33:11;;;;;;;;;;;;;;;;;;5106967;28;19979;-62
2023/05/18 14:35:39;;;;;;;;;;;;;;;;;;5109651;28;20020;-61
2023/05/18 14:38:05;;;;;;;;;;;;;;;;;;5110427;28;19931;-65
2023/05/18 14:40:30;;;;;;;;;;;;;;;;;;5100393;27;20016;-64
2023/05/18 14:42:56;;;;;;;;;;;;;;;;;;5101000;28;19954;-63
2023/05/18 14:45:22;;;;;;;;;;;;;;;;;;5106046;28;19955;-63
2023/05/18 14:47:48;;;;;;;;;;;;;;;;;;5105864;28;20039;-63
2023/05/18 14:50:15;;;;;;;;;;;;;;;;;;5103583;28;20388;-62
2023/05/18 14:52:41;;;;;;;;;;;;;;;;;;5099247;27;20367;-62
2023/05/18 14:55:07;;;;;;;;;;;;;;;;;;5102748;28;19995;-63
2023/05/18 14:57:33;;;;;;;;;;;;;;;;;;5107206;27;19950;-61
2023/05/18 14:59:59;;;;;;;;;;;;;;;;;;5106873;27;20386;-61
2023/05/18 15:02:25;;;;;;;;;;;;;;;;;;5107683;28;19911;-61
2023/05/18 15:04:51;;;;;;;;;;;;;;;;;;5100872;28;19912;-61
2023/05/18 15:07:17;;;;;;;;;;;;;;;;;;5105822;28;19947;-61
2023/05/18 15:09:43;;;;;;;;;;;;;;;;;;5106874;28;19954;-61
2023/05/18 15:12:09;;;;;;;;;;;;;;;;;;5107854;28;19911;-61
2023/05/18 15:14:36;;;;;;;;;;;;;;;;;;5105755;28;19943;-61
2023/05/18 15:17:02;;;;;;;;;;;;;;;;;;5109290;28;19915;-60
2023/05/18 15:19:29;;;;;;;;;;;;;;;;;;5106090;28;19911;-61
2023/05/18 15:21:54;;;;;;;;;;;;;;;;;;5106393;28;20646;-62
2023/05/18 15:24:21;;;;;;;;;;;;;;;;;;5101615;27;19994;-59
2023/05/18 15:26:47;;;;;;;;;;;;;;;;;;5107806;27;20427;-58
2023/05/18 15:29:13;;;;;;;;;;;;;;;;;;5107394;27;19950;-59
2023/05/18 15:31:39;;;;;;;;;;;;;;;;;;5109277;27;20359;-59
2023/05/18 15:34:05;;;;;;;;;;;;;;;;;;5104016;28;19951;-68
2023/05/18 15:36:32;;;;;;;;;;;;;;;;;;5105572;28;19968;-59
2023/05/18 15:38:58;;;;;;;;;;;;;;;;;;5108724;28;19915;-59
2023/05/18 15:41:27;;;;;;;;;;;;;;;;;;5103949;27;20279;-59
2023/05/18 15:43:53;;;;;;;;;;;;;;;;;;5103357;27;19934;-59
2023/05/18 15:46:19;;;;;;;;;;;;;;;;;;5101443;27;19939;-58
2023/05/18 15:48:45;;;;;;;;;;;;;;;;;;5102656;28;19918;-59
2023/05/18 15:51:11;;;;;;;;;;;;;;;;;;5103113;28;19998;-58
2023/05/18 15:53:37;;;;;;;;;;;;;;;;;;5105986;28;19907;-58
2023/05/18 15:56:03;;;;;;;;;;;;;;;;;;5105565;28;19912;-59
2023/05/18 15:58:29;;;;;;;;;;;;;;;;;;5106228;28;19939;-60
2023/05/18 16:00:55;;;;;;;;;;;;;;;;;;5102876;28;19986;-60
2023/05/18 16:03:21;;;;;;;;;;;;;;;;;;5103110;28;19915;-60
2023/05/18 16:05:49;;;;;;;;;;;;;;;;;;5090655;28;19908;-60
2023/05/18 16:08:15;;;;;;;;;;;;;;;;;;5106163;28;19915;-60
2023/05/18 16:10:41;;;;;;;;;;;;;;;;;;5107634;28;20390;-60
2023/05/18 16:13:07;;;;;;;;;;;;;;;;;;5107631;28;19908;-60
2023/05/18 16:15:33;;;;;;;;;;;;;;;;;;5105650;28;20002;-60
2023/05/18 16:17:59;;;;;;;;;;;;;;;;;;5101750;28;20355;-61
2023/05/18 16:20:25;;;;;;;;;;;;;;;;;;5103973;28;19912;-60
2023/05/18 16:22:51;;;;;;;;;;;;;;;;;;5101560;28;19974;-60
2023/05/18 16:25:17;;;;;;;;;;;;;;;;;;5071944;28;19994;-60
2023/05/18 16:27:43;;;;;;;;;;;;;;;;;;5096543;28;19945;-60
2023/05/18 16:30:09;;;;;;;;;;;;;;;;;;5100473;28;19999;-60
2023/05/18 16:32:35;;;;;;;;;;;;;;;;;;5081790;28;20002;-60
2023/05/18 16:35:01;;;;;;;;;;;;;;;;;;5098279;28;19917;-60
2023/05/18 16:37:27;;;;;;;;;;;;;;;;;;5100417;28;20000;-59